Time;durP1;ratioP1;P1;durP2;ratioP2;P2;SDS_P1;SDS_P2;PMS_P1;PMS_P2;Temp;Humidity;BMP_temperature;BMP_pressure;BME280_temperature;BME280_humidity;BME280_pressure;Samples;Min_cycle;Max_cycle;Signal;HPM_P1;HPM_P2
2024/03/17 00:02:18;;;;;;;3.07;2.87;;;9.60;68.90;;;;;;4961287;28;20598;-64
2024/03/17 00:04:44;;;;;;;3.33;2.97;;;9.60;68.30;;;;;;4960007;28;20249;-65
2024/03/17 00:07:10;;;;;;;3.10;2.80;;;9.60;68.30;;;;;;4952118;28;20230;-65
2024/03/17 00:09:36;;;;;;;3.33;3.03;;;9.60;67.70;;;;;;4948981;28;20571;-65
2024/03/17 00:12:02;;;;;;;3.03;2.83;;;9.60;67.70;;;;;;4948031;28;20949;-66
2024/03/17 00:14:29;;;;;;;2.90;2.70;;;9.50;67.60;;;;;;4951736;28;20202;-64
2024/03/17 00:16:54;;;;;;;3.10;2.90;;;9.60;67.70;;;;;;4960093;28;20280;-65
2024/03/17 00:19:22;;;;;;;3.07;2.87;;;9.60;68.50;;;;;;4960019;28;20230;-65
2024/03/17 00:21:47;;;;;;;2.97;2.77;;;9.50;67.60;;;;;;4964981;28;20235;-66
2024/03/17 00:24:14;;;;;;;3.30;3.00;;;9.50;66.20;;;;;;4956735;28;20212;-65
2024/03/17 00:26:39;;;;;;;3.70;3.10;;;9.50;67.10;;;;;;4969270;28;20638;-65
2024/03/17 00:29:06;;;;;;;3.00;2.80;;;9.60;66.90;;;;;;4953841;28;20213;-64
2024/03/17 00:31:32;;;;;;;3.73;2.73;;;9.60;67.70;;;;;;4956577;28;20241;-66
2024/03/17 00:33:58;;;;;;;3.30;3.10;;;9.60;68.30;;;;;;4961702;28;20209;-65
2024/03/17 00:36:24;;;;;;;3.23;2.93;;;9.40;67.50;;;;;;4961512;28;20214;-65
2024/03/17 00:38:52;;;;;;;3.60;3.00;;;9.50;67.60;;;;;;4962647;28;20214;-64
2024/03/17 00:41:19;;;;;;;3.40;3.10;;;9.50;67.60;;;;;;4954351;28;20209;-64
2024/03/17 00:43:45;;;;;;;3.53;3.23;;;9.50;67.60;;;;;;4955260;28;20213;-65
2024/03/17 00:46:11;;;;;;;3.50;3.30;;;9.40;68.10;;;;;;4962208;28;20595;-62
2024/03/17 00:48:38;;;;;;;3.20;3.00;;;9.50;68.10;;;;;;4950992;28;20209;-65
2024/03/17 00:51:04;;;;;;;3.10;2.77;;;9.60;67.70;;;;;;4952763;28;20209;-64
2024/03/17 00:53:30;;;;;;;3.63;3.33;;;9.60;67.70;;;;;;4965007;28;20209;-65
2024/03/17 00:55:58;;;;;;;4.17;3.50;;;9.60;67.70;;;;;;4963754;28;20268;-64
2024/03/17 00:58:24;;;;;;;4.90;3.60;;;9.50;67.90;;;;;;4959165;28;20214;-64
2024/03/17 01:00:50;;;;;;;3.43;3.20;;;9.50;68.30;;;;;;4962794;28;20228;-64
2024/03/17 01:03:16;;;;;;;3.17;2.97;;;9.60;67.70;;;;;;4961481;28;20222;-64
2024/03/17 01:05:44;;;;;;;3.30;3.00;;;9.60;68.60;;;;;;4961686;28;20231;-65
2024/03/17 01:08:10;;;;;;;3.20;3.00;;;9.60;69.00;;;;;;4948052;28;20213;-66
2024/03/17 01:10:36;;;;;;;3.60;3.30;;;9.60;69.00;;;;;;4962097;28;20215;-64
2024/03/17 01:13:03;;;;;;;4.00;3.60;;;9.50;69.60;;;;;;4965011;28;20232;-66
2024/03/17 01:15:28;;;;;;;4.00;3.47;;;9.50;70.10;;;;;;4952700;28;20713;-63
2024/03/17 01:17:55;;;;;;;3.60;3.30;;;9.50;70.40;;;;;;4964423;28;20297;-66
2024/03/17 01:20:20;;;;;;;4.17;3.57;;;9.50;70.70;;;;;;4957587;28;20584;-64
2024/03/17 01:22:47;;;;;;;3.93;3.60;;;9.60;70.20;;;;;;4958851;28;20312;-68
2024/03/17 01:25:13;;;;;;;4.03;3.73;;;9.50;70.50;;;;;;4955227;28;20215;-64
2024/03/17 01:27:39;;;;;;;4.80;4.40;;;9.60;71.10;;;;;;4966054;28;20230;-64
2024/03/17 01:30:05;;;;;;;4.43;4.03;;;9.50;71.40;;;;;;4961103;28;20214;-64
2024/03/17 01:32:32;;;;;;;3.50;3.20;;;9.50;72.00;;;;;;4956958;28;20259;-64
2024/03/17 01:34:57;;;;;;;6.60;4.00;;;9.30;71.70;;;;;;4955280;28;20213;-64
2024/03/17 01:37:24;;;;;;;4.13;3.73;;;9.20;72.60;;;;;;4964489;28;20660;-65
2024/03/17 01:39:50;;;;;;;3.67;3.30;;;9.20;72.70;;;;;;4963535;28;20641;-64
2024/03/17 01:42:16;;;;;;;4.00;3.67;;;9.10;72.50;;;;;;4954941;28;20289;-64
2024/03/17 01:44:42;;;;;;;5.27;4.07;;;9.00;71.90;;;;;;4965021;28;20210;-64
2024/03/17 01:47:09;;;;;;;3.70;3.40;;;9.10;72.10;;;;;;4955298;28;20236;-67
2024/03/17 01:49:34;;;;;;;3.77;3.47;;;9.10;71.80;;;;;;4945887;28;20650;-64
2024/03/17 01:52:02;;;;;;;4.00;3.70;;;9.00;72.10;;;;;;4956234;28;20228;-64
2024/03/17 01:54:27;;;;;;;4.00;3.60;;;8.90;72.30;;;;;;4964179;28;20240;-65
2024/03/17 01:56:54;;;;;;;3.90;3.53;;;8.90;72.40;;;;;;4961651;28;20201;-64
2024/03/17 01:59:19;;;;;;;4.47;4.17;;;8.90;72.50;;;;;;4961206;28;20214;-63
2024/03/17 02:01:46;;;;;;;4.53;4.13;;;8.90;72.50;;;;;;4962961;28;20239;-64
2024/03/17 02:04:11;;;;;;;5.60;3.90;;;8.90;72.70;;;;;;4964530;28;20582;-64
2024/03/17 02:06:39;;;;;;;4.00;3.70;;;9.00;72.20;;;;;;4956900;28;20239;-64
2024/03/17 02:09:04;;;;;;;4.57;4.00;;;9.00;72.40;;;;;;4949960;28;20590;-65
2024/03/17 02:11:31;;;;;;;4.00;3.70;;;9.10;72.10;;;;;;4969789;28;20222;-63
2024/03/17 02:13:57;;;;;;;4.17;3.77;;;9.10;71.80;;;;;;4953148;28;20595;-62
2024/03/17 02:16:23;;;;;;;4.40;4.03;;;9.10;71.80;;;;;;4961362;28;20212;-63
2024/03/17 02:18:49;;;;;;;4.63;3.90;;;9.10;71.60;;;;;;4963454;28;20232;-64
2024/03/17 02:21:15;;;;;;;4.40;3.90;;;9.20;71.50;;;;;;4964034;28;20223;-62
2024/03/17 02:23:41;;;;;;;4.50;3.83;;;9.20;71.20;;;;;;4947089;28;20300;-64
2024/03/17 02:26:08;;;;;;;4.20;3.80;;;9.20;70.00;;;;;;4956505;28;20309;-64
2024/03/17 02:28:34;;;;;;;4.03;3.73;;;9.20;70.00;;;;;;4951799;28;20224;-63
2024/03/17 02:31:00;;;;;;;5.03;4.37;;;9.20;69.80;;;;;;4964150;28;20291;-65
2024/03/17 02:33:26;;;;;;;4.43;3.90;;;9.10;70.10;;;;;;4966281;28;20218;-64
2024/03/17 02:35:52;;;;;;;4.30;3.83;;;9.20;69.80;;;;;;4966844;28;20205;-62
2024/03/17 02:39:33;;;;;;;4.50;3.90;;;9.20;69.80;;;;;;4961691;28;20213;-65
2024/03/17 02:41:05;;;;;;;5.17;3.97;;;9.20;69.80;;;;;;4966366;28;20233;-63
2024/03/17 02:43:32;;;;;;;4.30;3.90;;;9.20;69.60;;;;;;4957716;28;20238;-65
2024/03/17 02:45:58;;;;;;;4.37;3.97;;;9.20;69.70;;;;;;4948049;28;20243;-64
2024/03/17 02:48:25;;;;;;;4.57;4.17;;;9.20;69.60;;;;;;4961253;28;20702;-63
2024/03/17 02:50:52;;;;;;;4.47;4.07;;;9.10;70.30;;;;;;4966520;28;20296;-65
2024/03/17 02:53:19;;;;;;;4.60;4.20;;;9.10;69.90;;;;;;4967670;28;20599;-64
2024/03/17 02:55:45;;;;;;;4.40;4.03;;;9.10;69.70;;;;;;4965875;28;20209;-65
2024/03/17 02:58:12;;;;;;;4.03;3.73;;;9.10;68.70;;;;;;4958957;28;20217;-62
2024/03/17 03:00:40;;;;;;;4.43;4.03;;;9.10;68.80;;;;;;4956446;28;20254;-65
2024/03/17 03:03:06;;;;;;;4.47;4.07;;;9.10;69.40;;;;;;4952146;28;20376;-64
2024/03/17 03:05:33;;;;;;;4.47;4.07;;;9.20;68.30;;;;;;4959248;28;20210;-64
2024/03/17 03:08:00;;;;;;;4.63;4.10;;;9.10;69.30;;;;;;4959558;28;20225;-63
2024/03/17 03:10:26;;;;;;;4.30;4.00;;;9.00;69.00;;;;;;4967055;28;20218;-66
2024/03/17 03:12:53;;;;;;;4.37;4.03;;;9.10;68.90;;;;;;4960633;28;20271;-64
2024/03/17 03:15:20;;;;;;;4.70;4.20;;;9.10;69.00;;;;;;4958491;28;20217;-64
2024/03/17 03:17:46;;;;;;;4.30;3.93;;;9.10;69.00;;;;;;4965643;28;20295;-64
2024/03/17 03:20:13;;;;;;;4.87;4.13;;;9.10;68.90;;;;;;4964606;28;20210;-65
2024/03/17 03:22:40;;;;;;;4.53;4.13;;;9.10;69.40;;;;;;4955503;28;20232;-64
2024/03/17 03:25:07;;;;;;;4.50;4.10;;;9.10;70.40;;;;;;4957974;28;20224;-66
2024/03/17 03:27:34;;;;;;;5.87;4.40;;;9.10;69.80;;;;;;4958724;28;20665;-65
2024/03/17 03:30:01;;;;;;;4.73;4.20;;;9.10;69.60;;;;;;4962881;28;20205;-63
2024/03/17 03:32:27;;;;;;;4.87;4.20;;;9.00;69.20;;;;;;4960786;28;20280;-65
2024/03/17 03:34:54;;;;;;;4.53;4.07;;;9.10;69.20;;;;;;4968644;28;20216;-65
2024/03/17 03:37:20;;;;;;;3.73;3.43;;;9.10;68.70;;;;;;4967898;28;20688;-65
2024/03/17 03:39:47;;;;;;;4.97;4.00;;;9.10;67.60;;;;;;4960966;28;20304;-63
2024/03/17 03:42:14;;;;;;;4.70;4.20;;;9.10;67.30;;;;;;4955537;28;20726;-64
2024/03/17 03:44:40;;;;;;;4.57;4.17;;;9.10;67.60;;;;;;4963881;28;20231;-62
2024/03/17 03:47:07;;;;;;;4.43;4.10;;;9.10;67.30;;;;;;4960489;28;20249;-64
2024/03/17 03:49:34;;;;;;;5.17;4.70;;;9.10;67.30;;;;;;4959914;28;20579;-66
2024/03/17 03:52:00;;;;;;;4.83;4.40;;;9.10;67.30;;;;;;4968165;28;20229;-65
2024/03/17 03:54:27;;;;;;;4.70;4.30;;;9.00;67.70;;;;;;4963012;28;20213;-64
2024/03/17 03:56:54;;;;;;;6.13;4.43;;;9.10;68.30;;;;;;4959769;28;20206;-65
2024/03/17 03:59:20;;;;;;;4.60;4.20;;;9.10;68.60;;;;;;4954418;28;20637;-65
2024/03/17 04:01:47;;;;;;;4.77;4.37;;;9.10;67.50;;;;;;4962863;28;20320;-64
2024/03/17 04:04:14;;;;;;;4.60;4.20;;;9.00;68.40;;;;;;4953558;28;20310;-64
2024/03/17 04:06:41;;;;;;;6.20;4.40;;;8.90;68.10;;;;;;4961332;28;20236;-65
2024/03/17 04:09:09;;;;;;;4.47;4.07;;;9.00;68.80;;;;;;4965942;28;20287;-65
2024/03/17 04:11:35;;;;;;;4.50;4.10;;;9.00;68.80;;;;;;4962190;28;20711;-65
2024/03/17 04:14:02;;;;;;;4.60;4.20;;;9.00;68.10;;;;;;4960949;28;20208;-66
2024/03/17 04:16:31;;;;;;;5.67;4.90;;;9.00;68.40;;;;;;4956429;28;20238;-64
2024/03/17 04:18:58;;;;;;;5.20;4.17;;;9.00;68.30;;;;;;4962828;28;20217;-64
2024/03/17 04:21:24;;;;;;;4.80;4.40;;;8.90;69.40;;;;;;4961937;28;20233;-63
2024/03/17 04:23:51;;;;;;;5.40;4.33;;;8.90;68.70;;;;;;4964707;28;20698;-63
2024/03/17 04:26:18;;;;;;;5.53;4.73;;;8.90;69.60;;;;;;4965858;28;20648;-63
2024/03/17 04:28:45;;;;;;;5.30;4.80;;;9.00;69.50;;;;;;4964063;28;20684;-65
2024/03/17 04:31:11;;;;;;;5.13;4.70;;;9.00;69.40;;;;;;4962397;28;20246;-64
2024/03/17 04:33:38;;;;;;;5.03;4.50;;;9.00;69.30;;;;;;4954478;28;20211;-67
2024/03/17 04:36:04;;;;;;;5.30;4.83;;;9.00;68.80;;;;;;4962655;28;20228;-64
2024/03/17 04:38:31;;;;;;;5.00;4.53;;;9.00;69.20;;;;;;4954055;28;20218;-65
2024/03/17 04:41:04;;;;;;;5.87;4.50;;;9.00;69.20;;;;;;4955274;28;20612;-65
2024/03/17 04:43:32;;;;;;;5.20;4.70;;;9.00;69.50;;;;;;4968624;28;20213;-67
2024/03/17 04:45:58;;;;;;;5.03;4.63;;;9.00;70.00;;;;;;4955625;28;20245;-64
2024/03/17 04:48:25;;;;;;;7.07;5.07;;;8.90;70.20;;;;;;4963300;28;20209;-66
2024/03/17 04:50:51;;;;;;;5.40;4.90;;;8.90;70.30;;;;;;4960454;28;20592;-63
2024/03/17 04:53:18;;;;;;;5.97;5.47;;;9.00;69.80;;;;;;4953783;28;20233;-64
2024/03/17 04:55:45;;;;;;;5.37;4.87;;;9.00;69.90;;;;;;4956500;28;20205;-64
2024/03/17 04:58:12;;;;;;;5.80;5.30;;;9.00;70.20;;;;;;4963026;28;20743;-64
2024/03/17 05:00:38;;;;;;;5.83;5.33;;;9.00;70.00;;;;;;4963124;28;20209;-65
2024/03/17 05:03:05;;;;;;;5.03;4.53;;;9.00;70.10;;;;;;4965477;28;20608;-64
2024/03/17 05:05:31;;;;;;;6.23;5.43;;;9.00;70.50;;;;;;4963463;28;20232;-67
2024/03/17 05:07:58;;;;;;;5.73;5.23;;;9.00;70.30;;;;;;4946904;28;20228;-64
2024/03/17 05:10:24;;;;;;;6.57;4.93;;;9.10;69.40;;;;;;4971516;28;20216;-64
2024/03/17 05:12:51;;;;;;;5.93;5.43;;;9.00;69.70;;;;;;4953141;28;20231;-64
2024/03/17 05:15:18;;;;;;;5.33;4.93;;;9.00;69.40;;;;;;4965245;28;20217;-66
2024/03/17 05:17:45;;;;;;;5.43;4.93;;;9.00;69.90;;;;;;4958414;28;20210;-65
2024/03/17 05:20:13;;;;;;;6.03;5.03;;;9.00;69.70;;;;;;4965475;28;20291;-67
2024/03/17 05:22:39;;;;;;;6.50;5.30;;;9.00;70.30;;;;;;4956493;28;20600;-65
2024/03/17 05:25:07;;;;;;;5.40;4.90;;;9.00;69.90;;;;;;4955363;28;20217;-66
2024/03/17 05:27:34;;;;;;;5.17;4.67;;;9.10;70.20;;;;;;4952982;28;20328;-65
2024/03/17 05:30:01;;;;;;;5.70;5.10;;;9.00;70.10;;;;;;4957417;28;20321;-64
2024/03/17 05:32:28;;;;;;;5.40;4.90;;;9.00;70.40;;;;;;4961629;28;20241;-65
2024/03/17 05:34:54;;;;;;;5.60;5.10;;;9.00;71.40;;;;;;4961260;28;20220;-64
2024/03/17 05:37:21;;;;;;;5.30;4.80;;;8.90;71.10;;;;;;4958146;28;20248;-66
2024/03/17 05:39:47;;;;;;;5.43;4.93;;;8.90;71.50;;;;;;4963076;28;20233;-65
2024/03/17 05:42:14;;;;;;;5.63;5.13;;;8.90;71.90;;;;;;4964352;28;20239;-64
2024/03/17 05:44:50;;;;;;;6.53;4.63;;;9.00;71.80;;;;;;4955882;28;20225;-65
2024/03/17 05:47:16;;;;;;;4.97;4.40;;;9.00;71.70;;;;;;4940390;28;20234;-64
2024/03/17 05:49:43;;;;;;;5.40;4.30;;;9.00;71.70;;;;;;4966460;28;20551;-65
2024/03/17 05:52:10;;;;;;;5.03;4.63;;;9.00;72.00;;;;;;4960698;28;20219;-65
2024/03/17 05:54:37;;;;;;;4.90;4.37;;;9.10;71.80;;;;;;4961411;28;20231;-64
2024/03/17 05:57:04;;;;;;;4.80;4.40;;;9.20;71.40;;;;;;4961279;28;20223;-63
2024/03/17 05:59:31;;;;;;;5.03;4.03;;;9.10;71.20;;;;;;4961321;28;20208;-65
2024/03/17 06:01:57;;;;;;;4.60;4.20;;;9.20;70.60;;;;;;4964419;28;20233;-64
2024/03/17 06:04:24;;;;;;;5.47;4.60;;;9.20;70.20;;;;;;4944673;28;20210;-62
2024/03/17 06:06:51;;;;;;;4.70;4.30;;;9.10;70.90;;;;;;4962029;28;20663;-64
2024/03/17 06:09:19;;;;;;;4.43;4.03;;;9.20;70.10;;;;;;4968892;28;20209;-64
2024/03/17 06:11:46;;;;;;;5.07;4.67;;;9.30;70.00;;;;;;4966679;28;20228;-64
2024/03/17 06:14:13;;;;;;;4.63;4.13;;;9.40;69.80;;;;;;4963058;28;20204;-64
2024/03/17 06:16:39;;;;;;;7.53;4.63;;;9.40;68.70;;;;;;4967429;28;20211;-65
2024/03/17 06:19:07;;;;;;;4.73;4.23;;;9.40;66.30;;;;;;4960411;28;20207;-65
2024/03/17 06:21:33;;;;;;;4.77;4.37;;;9.30;66.80;;;;;;4953920;28;20229;-64
2024/03/17 06:24:00;;;;;;;6.03;4.93;;;9.30;65.40;;;;;;4967044;28;20201;-64
2024/03/17 06:26:27;;;;;;;5.67;4.70;;;9.30;66.00;;;;;;4967678;28;20210;-62
2024/03/17 06:28:53;;;;;;;4.70;4.27;;;9.40;65.30;;;;;;4965319;28;20213;-66
2024/03/17 06:31:20;;;;;;;4.57;4.17;;;9.50;64.70;;;;;;4964583;28;20249;-64
2024/03/17 06:33:46;;;;;;;6.10;4.67;;;9.50;64.60;;;;;;4965486;28;20213;-63
2024/03/17 06:36:13;;;;;;;4.80;3.97;;;9.50;64.40;;;;;;4964150;28;20227;-64
2024/03/17 06:38:40;;;;;;;4.33;4.03;;;9.40;64.40;;;;;;4955315;28;20202;-65
2024/03/17 06:41:07;;;;;;;4.87;4.37;;;9.40;64.50;;;;;;4968675;28;20288;-63
2024/03/17 06:43:34;;;;;;;4.80;4.40;;;9.60;64.20;;;;;;4965157;28;20205;-64
2024/03/17 06:46:00;;;;;;;5.13;4.63;;;9.60;63.20;;;;;;4966007;28;20206;-65
2024/03/17 06:48:27;;;;;;;4.63;4.20;;;9.60;62.50;;;;;;4965222;28;20659;-64
2024/03/17 06:50:54;;;;;;;6.27;5.00;;;9.60;62.50;;;;;;4966514;28;20225;-64
2024/03/17 06:53:21;;;;;;;4.53;4.00;;;9.70;62.50;;;;;;4964476;28;20733;-66
2024/03/17 06:55:48;;;;;;;4.93;4.53;;;9.70;62.30;;;;;;4950831;28;20213;-65
2024/03/17 06:58:14;;;;;;;5.07;4.60;;;9.60;60.80;;;;;;4956490;28;20221;-66
2024/03/17 07:00:43;;;;;;;4.93;4.53;;;9.70;60.10;;;;;;4958780;28;20209;-67
2024/03/17 07:03:10;;;;;;;4.97;4.43;;;9.80;60.30;;;;;;4943856;28;20231;-65
2024/03/17 07:05:37;;;;;;;4.77;4.10;;;9.80;60.00;;;;;;4952474;28;20215;-64
2024/03/17 07:08:03;;;;;;;4.87;4.37;;;9.80;59.40;;;;;;4966646;28;20261;-65
2024/03/17 07:10:30;;;;;;;5.23;4.80;;;9.80;59.90;;;;;;4957752;28;20216;-64
2024/03/17 07:12:56;;;;;;;4.60;4.13;;;9.70;61.00;;;;;;4960886;28;20231;-63
2024/03/17 07:15:23;;;;;;;5.33;4.23;;;9.90;60.60;;;;;;4964489;28;20647;-63
2024/03/17 07:17:49;;;;;;;4.73;4.13;;;10.10;59.30;;;;;;4963619;28;20207;-65
2024/03/17 07:23:00;;;;;;;5.17;3.97;;;10.40;58.50;;;;;;5550627;23;20307;-66
2024/03/17 07:25:27;;;;;;;4.10;3.77;;;10.40;58.20;;;;;;4978797;28;20515;-65
2024/03/17 07:27:54;;;;;;;3.97;3.57;;;10.40;58.20;;;;;;4980159;28;20597;-64
2024/03/17 07:30:20;;;;;;;4.00;3.63;;;10.70;58.00;;;;;;4982532;28;20206;-62
2024/03/17 07:32:47;;;;;;;4.00;3.60;;;10.80;57.20;;;;;;4970996;28;20234;-68
2024/03/17 07:35:13;;;;;;;4.70;4.20;;;10.70;57.10;;;;;;4971139;28;20203;-68
2024/03/17 07:37:40;;;;;;;4.30;3.90;;;10.90;58.00;;;;;;4984180;28;20208;-64
2024/03/17 07:40:10;;;;;;;3.53;3.23;;;10.70;56.70;;;;;;4984028;28;20737;-64
2024/03/17 07:42:37;;;;;;;4.43;3.50;;;10.80;57.50;;;;;;4991834;28;20237;-64
2024/03/17 07:45:04;;;;;;;4.40;3.90;;;11.00;56.30;;;;;;4993124;28;20221;-64
2024/03/17 07:47:35;;;;;;;3.50;3.20;;;11.10;55.50;;;;;;4983624;28;20228;-65
2024/03/17 07:50:04;;;;;;;4.30;3.40;;;11.00;55.10;;;;;;4987838;28;20292;-65
2024/03/17 07:52:30;;;;;;;3.60;3.30;;;10.90;55.30;;;;;;4982629;28;20234;-65
2024/03/17 07:54:57;;;;;;;4.00;3.60;;;10.80;56.50;;;;;;4976433;28;20217;-65
2024/03/17 07:57:23;;;;;;;4.17;3.47;;;11.00;56.90;;;;;;4976625;28;20258;-64
2024/03/17 07:59:51;;;;;;;3.97;3.50;;;11.10;57.00;;;;;;4977622;28;20223;-64
2024/03/17 08:02:17;;;;;;;4.50;3.87;;;11.00;57.70;;;;;;4972365;28;20671;-64
2024/03/17 08:04:44;;;;;;;4.40;4.00;;;11.20;57.50;;;;;;4984198;28;20209;-65
2024/03/17 08:07:11;;;;;;;3.80;3.40;;;11.30;56.90;;;;;;4974417;28;20221;-64
2024/03/17 08:09:38;;;;;;;4.10;3.80;;;11.40;57.40;;;;;;4991110;28;20555;-64
2024/03/17 08:12:04;;;;;;;4.40;4.00;;;11.30;57.70;;;;;;4990061;28;20232;-64
2024/03/17 08:14:31;;;;;;;4.00;3.70;;;11.70;57.10;;;;;;4981148;28;20211;-64
2024/03/17 08:16:57;;;;;;;4.00;3.70;;;11.80;56.80;;;;;;4993294;28;20215;-66
2024/03/17 08:19:24;;;;;;;3.97;3.60;;;12.00;57.10;;;;;;4980239;28;20209;-64
2024/03/17 08:21:51;;;;;;;3.90;3.60;;;12.00;57.10;;;;;;4990263;28;20247;-63
2024/03/17 08:24:17;;;;;;;4.30;3.90;;;12.00;57.00;;;;;;4980340;28;20223;-65
2024/03/17 08:26:45;;;;;;;4.23;3.50;;;12.10;56.90;;;;;;4988256;28;20207;-69
2024/03/17 08:29:11;;;;;;;4.53;3.43;;;12.00;56.50;;;;;;4976908;28;20226;-64
2024/03/17 08:31:38;;;;;;;3.60;3.30;;;11.70;57.20;;;;;;4979988;28;20232;-65
2024/03/17 08:34:05;;;;;;;4.03;3.13;;;11.70;57.30;;;;;;4983990;28;20620;-64
2024/03/17 08:36:31;;;;;;;3.30;3.00;;;11.80;57.50;;;;;;4978024;28;20255;-64
2024/03/17 08:38:58;;;;;;;3.43;3.20;;;12.10;57.10;;;;;;4981247;28;20360;-64
2024/03/17 08:41:25;;;;;;;4.33;3.37;;;12.20;56.30;;;;;;4985725;28;20231;-64
2024/03/17 08:43:51;;;;;;;3.37;3.07;;;12.10;56.10;;;;;;4984014;28;20206;-65
2024/03/17 08:46:18;;;;;;;3.37;3.07;;;12.40;56.30;;;;;;4992705;28;20221;-63
2024/03/17 08:48:45;;;;;;;3.80;3.47;;;12.50;56.40;;;;;;4978578;28;20223;-66
2024/03/17 08:51:11;;;;;;;3.67;3.37;;;12.80;54.90;;;;;;4979766;28;20229;-65
2024/03/17 08:53:39;;;;;;;3.60;3.30;;;13.10;54.10;;;;;;4985748;28;20675;-64
2024/03/17 08:56:06;;;;;;;3.73;2.83;;;13.40;53.00;;;;;;4953290;28;20216;-65
2024/03/17 08:58:33;;;;;;;3.20;2.90;;;13.60;53.00;;;;;;4963505;28;20205;-64
2024/03/17 09:00:59;;;;;;;4.73;2.90;;;14.00;51.60;;;;;;4962994;28;20233;-66
2024/03/17 09:03:27;;;;;;;2.70;2.50;;;13.60;51.30;;;;;;4949822;28;20283;-65
2024/03/17 09:05:54;;;;;;;3.57;2.80;;;13.80;52.10;;;;;;4975925;28;20240;-65
2024/03/17 09:08:21;;;;;;;3.10;2.87;;;14.00;50.90;;;;;;4983022;28;20230;-64
2024/03/17 09:10:48;;;;;;;3.23;2.93;;;14.70;49.20;;;;;;4982139;28;20223;-65
2024/03/17 09:13:15;;;;;;;3.10;2.80;;;15.90;48.50;;;;;;4984913;28;20602;-64
2024/03/17 09:15:42;;;;;;;4.57;2.60;;;16.30;47.40;;;;;;4985807;28;20641;-64
2024/03/17 09:18:08;;;;;;;2.50;2.30;;;17.00;46.10;;;;;;4989857;28;20216;-67
2024/03/17 09:20:35;;;;;;;3.27;2.00;;;17.10;44.30;;;;;;4976517;28;20212;-64
2024/03/17 09:23:01;;;;;;;2.07;1.97;;;17.10;42.40;;;;;;4989317;28;20237;-65
2024/03/17 09:25:28;;;;;;;1.93;1.83;;;17.70;40.60;;;;;;4986390;28;20215;-64
2024/03/17 09:27:54;;;;;;;3.17;1.80;;;17.90;42.80;;;;;;4985964;28;20237;-67
2024/03/17 09:30:21;;;;;;;2.03;1.90;;;18.10;41.10;;;;;;4985442;28;20209;-64
2024/03/17 09:32:48;;;;;;;2.00;1.90;;;18.10;41.50;;;;;;4987357;28;20315;-65
2024/03/17 09:35:13;;;;;;;1.80;1.70;;;18.60;40.20;;;;;;4991858;28;20223;-66
2024/03/17 09:37:40;;;;;;;2.00;1.90;;;18.60;38.10;;;;;;4948723;28;20208;-67
2024/03/17 09:40:07;;;;;;;1.85;1.70;;;18.90;37.20;;;;;;4946706;28;20222;-65
2024/03/17 09:42:34;;;;;;;2.13;1.92;;;18.70;37.10;;;;;;4950547;28;20232;-68
2024/03/17 09:45:00;;;;;;;1.83;1.73;;;17.60;38.80;;;;;;4943107;28;20675;-65
2024/03/17 09:47:27;;;;;;;2.42;1.70;;;17.90;39.30;;;;;;4947540;28;20211;-64
2024/03/17 09:49:54;;;;;;;1.85;1.75;;;19.00;37.70;;;;;;4943552;28;20235;-67
2024/03/17 09:52:20;;;;;;;1.98;1.70;;;19.00;37.00;;;;;;4949329;28;20237;-65
2024/03/17 09:54:47;;;;;;;1.70;1.60;;;18.70;37.40;;;;;;4968336;28;20672;-65
2024/03/17 09:57:14;;;;;;;2.05;1.63;;;19.60;36.80;;;;;;4925676;28;20659;-69
2024/03/17 09:59:41;;;;;;;1.60;1.50;;;20.10;35.50;;;;;;4927948;28;20209;-67
2024/03/17 10:02:07;;;;;;;1.83;1.73;;;20.30;34.80;;;;;;4934249;28;20229;-67
2024/03/17 10:04:34;;;;;;;1.70;1.38;;;19.60;36.00;;;;;;4941149;28;20220;-69
2024/03/17 10:07:01;;;;;;;2.08;1.30;;;19.50;35.50;;;;;;4944051;28;20326;-67
2024/03/17 10:09:32;;;;;;;1.83;1.30;;;18.00;36.90;;;;;;4933683;28;21134;-65
2024/03/17 10:11:58;;;;;;;2.05;1.23;;;18.00;38.70;;;;;;4948156;28;20236;-64
2024/03/17 10:14:25;;;;;;;2.45;1.63;;;17.60;37.50;;;;;;4953121;28;20212;-68
2024/03/17 10:16:52;;;;;;;1.98;1.30;;;18.60;37.10;;;;;;4965179;28;20208;-65
2024/03/17 10:19:19;;;;;;;1.80;1.23;;;19.80;38.60;;;;;;4955047;28;20630;-64
2024/03/17 10:21:47;;;;;;;1.65;1.55;;;20.60;36.00;;;;;;4952442;28;20237;-65
2024/03/17 10:24:14;;;;;;;3.00;1.60;;;19.70;36.00;;;;;;4951461;28;20220;-67
2024/03/17 10:26:41;;;;;;;1.70;1.60;;;20.20;37.30;;;;;;4948738;28;20212;-65
2024/03/17 10:29:07;;;;;;;1.50;1.40;;;19.00;36.60;;;;;;4970888;28;20584;-65
2024/03/17 10:31:34;;;;;;;3.17;1.50;;;19.00;38.20;;;;;;4956402;28;20237;-67
2024/03/17 10:34:01;;;;;;;1.75;1.60;;;20.60;36.10;;;;;;4955905;28;20201;-64
2024/03/17 10:36:27;;;;;;;1.83;1.73;;;20.00;35.90;;;;;;4966881;28;20220;-62
2024/03/17 10:38:54;;;;;;;1.50;1.10;;;21.10;34.40;;;;;;4968108;28;20533;-62
2024/03/17 10:41:22;;;;;;;1.80;1.25;;;23.10;32.40;;;;;;4964264;28;20257;-63
2024/03/17 10:43:48;;;;;;;1.75;1.30;;;22.00;31.50;;;;;;4941785;28;20216;-64
2024/03/17 10:46:15;;;;;;;1.10;0.90;;;21.40;45.50;;;;;;4962804;28;20680;-62
2024/03/17 10:48:41;;;;;;;1.77;1.20;;;22.50;41.60;;;;;;4957355;28;20217;-62
2024/03/17 10:51:08;;;;;;;2.40;1.25;;;22.90;66.60;;;;;;4965286;28;20212;-62
2024/03/17 10:53:34;;;;;;;2.55;0.95;;;21.20;62.40;;;;;;4964288;28;20213;-65
2024/03/17 10:56:02;;;;;;;2.28;1.42;;;19.50;67.60;;;;;;4964464;28;20236;-64
2024/03/17 10:58:30;;;;;;;1.13;1.00;;;18.10;72.40;;;;;;4961294;28;20224;-62
2024/03/17 11:00:56;;;;;;;3.35;1.33;;;19.20;71.70;;;;;;4969621;28;20212;-60
2024/03/17 11:03:23;;;;;;;1.67;1.17;;;18.70;73.40;;;;;;4967852;28;20727;-61
2024/03/17 11:05:51;;;;;;;1.83;1.20;;;;;;;;;;4970119;28;20216;-62
2024/03/17 11:08:19;;;;;;;1.60;1.17;;;;;;;;;;4962454;28;20417;-63
2024/03/17 11:10:45;;;;;;;2.67;1.27;;;21.90;75.80;;;;;;4968747;28;20584;-63
2024/03/17 11:13:12;;;;;;;2.28;1.00;;;22.30;71.60;;;;;;4970290;28;20228;-63
2024/03/17 11:15:40;;;;;;;2.47;1.33;;;21.10;72.90;;;;;;4956497;28;20630;-63
2024/03/17 11:18:07;;;;;;;2.83;1.30;;;20.70;72.60;;;;;;4954802;28;20240;-63
2024/03/17 11:20:34;;;;;;;2.53;1.67;;;;;;;;;;4964526;28;20238;-62
2024/03/17 11:23:02;;;;;;;2.08;1.10;;;;;;;;;;4965945;28;20232;-62
2024/03/17 11:25:30;;;;;;;1.58;1.08;;;;;;;;;;4969895;28;20582;-63
2024/03/17 11:27:58;;;;;;;2.42;1.33;;;;;;;;;;4959843;28;20204;-62
2024/03/17 11:30:26;;;;;;;1.52;0.98;;;;;;;;;;4958098;28;20985;-63
2024/03/17 11:32:53;;;;;;;2.53;1.33;;;22.70;71.10;;;;;;4963684;28;20224;-63
2024/03/17 11:35:18;;;;;;;2.67;1.40;;;26.10;21.70;;;;;;4966030;28;20213;-62
2024/03/17 11:37:45;;;;;;;1.85;1.10;;;28.10;19.50;;;;;;4967142;28;20218;-63
2024/03/17 11:40:11;;;;;;;1.83;0.98;;;26.20;20.20;;;;;;4960214;28;20295;-62
2024/03/17 11:42:38;;;;;;;2.00;1.05;;;24.50;22.50;;;;;;4960148;28;20882;-62
2024/03/17 11:45:06;;;;;;;1.50;1.00;;;24.40;22.70;;;;;;4961073;28;20208;-66
2024/03/17 11:47:32;;;;;;;2.38;1.10;;;25.70;22.20;;;;;;4962622;28;20223;-63
2024/03/17 11:49:58;;;;;;;17.60;2.70;;;26.70;21.20;;;;;;4955204;28;20235;-65
2024/03/17 11:52:24;;;;;;;1.75;0.90;;;25.80;24.10;;;;;;4957686;28;20692;-65
2024/03/17 11:54:51;;;;;;;28.58;2.70;;;25.00;22.70;;;;;;4961536;28;20688;-63
2024/03/17 11:57:18;;;;;;;3.00;1.40;;;;;;;;;;4955438;28;20212;-68
2024/03/17 11:59:44;;;;;;;3.45;1.02;;;21.00;25.40;;;;;;4959598;28;20205;-66
2024/03/17 12:02:10;;;;;;;1.98;1.38;;;21.20;26.20;;;;;;4963323;28;20227;-68
2024/03/17 12:04:36;;;;;;;1.40;1.00;;;22.70;24.70;;;;;;4965443;28;20219;-67
2024/03/17 12:07:03;;;;;;;2.35;1.00;;;25.90;21.70;;;;;;4970377;28;20209;-66
2024/03/17 12:09:29;;;;;;;3.30;1.30;;;24.50;22.50;;;;;;4967633;28;20251;-65
2024/03/17 12:11:56;;;;;;;1.52;1.05;;;21.60;25.70;;;;;;4953434;28;20228;-65
2024/03/17 12:14:21;;;;;;;4.10;1.35;;;20.70;27.30;;;;;;4961672;28;20206;-66
2024/03/17 12:16:48;;;;;;;2.20;0.98;;;21.70;26.20;;;;;;4968958;28;20662;-64
2024/03/17 12:19:16;;;;;;;2.03;1.13;;;21.50;26.60;;;;;;4967584;28;20200;-65
2024/03/17 12:21:42;;;;;;;2.10;1.00;;;20.20;27.60;;;;;;4969394;28;20236;-65
2024/03/17 12:24:08;;;;;;;2.35;1.58;;;18.70;29.80;;;;;;4965593;28;20212;-65
2024/03/17 12:26:35;;;;;;;1.65;1.40;;;19.20;28.90;;;;;;4962589;28;20677;-66
2024/03/17 12:29:01;;;;;;;2.47;1.50;;;19.00;29.20;;;;;;4966279;28;20229;-66
2024/03/17 12:31:27;;;;;;;3.15;1.50;;;18.30;30.00;;;;;;4962723;28;20228;-63
2024/03/17 12:33:53;;;;;;;1.85;1.17;;;17.70;31.30;;;;;;4962472;28;20217;-67
2024/03/17 12:36:25;;;;;;;3.55;1.55;;;17.30;32.20;;;;;;4963137;28;20655;-65
2024/03/17 12:38:51;;;;;;;1.80;1.38;;;17.50;32.40;;;;;;4967686;28;20201;-65
2024/03/17 12:41:17;;;;;;;2.95;1.63;;;18.70;30.40;;;;;;4958913;28;20656;-66
2024/03/17 12:43:43;;;;;;;1.77;1.45;;;17.60;31.60;;;;;;4966411;28;20212;-65
2024/03/17 12:46:10;;;;;;;1.75;1.40;;;17.80;30.90;;;;;;4957517;28;20198;-66
2024/03/17 12:48:37;;;;;;;2.28;1.80;;;17.60;31.70;;;;;;4965337;28;20225;-65
2024/03/17 12:51:04;;;;;;;2.60;1.30;;;18.00;31.20;;;;;;4964369;28;20212;-66
2024/03/17 12:53:29;;;;;;;3.17;1.55;;;18.40;31.20;;;;;;4965861;28;20232;-66
2024/03/17 13:01:24;;;;;;;2.40;1.40;;;18.40;31.00;;;;;;4967306;28;20232;-67